Time;durP1;ratioP1;P1;durP2;ratioP2;P2;SDS_P1;SDS_P2;PMS_P1;PMS_P2;Temp;Humidity;BMP_temperature;BMP_pressure;BME280_temperature;BME280_humidity;BME280_pressure;Samples;Min_cycle;Max_cycle;Signal;HPM_P1;HPM_P2
2021/08/02 00:00:09;;;;;;;;;;;17.20;99.90;;;;;;5130064;27;20364;-82
2021/08/02 00:02:36;;;;;;;;;;;17.20;99.90;;;;;;5130300;27;19994;-81
2021/08/02 00:05:04;;;;;;;;;;;17.20;99.90;;;;;;5131265;27;20291;-81
2021/08/02 00:07:32;;;;;;;;;;;17.20;99.90;;;;;;5131593;27;19915;-81
2021/08/02 00:10:04;;;;;;;;;;;17.20;99.90;;;;;;5129320;27;19995;-81
2021/08/02 00:12:30;;;;;;;;;;;17.20;99.90;;;;;;5131051;27;19915;-81
2021/08/02 00:14:58;;;;;;;;;;;17.20;99.90;;;;;;5128943;27;19961;-81
2021/08/02 00:17:24;;;;;;;;;;;17.20;99.90;;;;;;5117205;28;19958;-81
2021/08/02 00:19:50;;;;;;;;;;;17.20;99.90;;;;;;5115230;28;19926;-81
2021/08/02 00:22:16;;;;;;;;;;;17.20;99.90;;;;;;5116013;28;19930;-81
2021/08/02 00:24:41;;;;;;;;;;;17.20;99.90;;;;;;5117154;28;19912;-82
2021/08/02 00:27:08;;;;;;;;;;;17.20;99.90;;;;;;5119195;28;19908;-82
2021/08/02 00:29:34;;;;;;;;;;;17.20;99.90;;;;;;5116513;28;19947;-82
2021/08/02 00:32:01;;;;;;;;;;;17.20;99.90;;;;;;5117009;28;19915;-82
2021/08/02 00:34:27;;;;;;;;;;;17.20;99.90;;;;;;5116512;28;19929;-82
2021/08/02 00:36:58;;;;;;;;;;;17.20;99.90;;;;;;5116955;28;19956;-82
2021/08/02 00:39:42;;;;;;;;;;;17.20;99.90;;;;;;5115697;28;19908;-82
2021/08/02 00:42:27;;;;;;;;;;;17.20;99.90;;;;;;5117409;28;20334;-82
2021/08/02 00:44:53;;;;;;;;;;;17.10;99.90;;;;;;5110297;28;19911;-82
2021/08/02 00:47:21;;;;;;;;;;;17.10;99.90;;;;;;5116406;28;19919;-82
2021/08/02 00:49:50;;;;;;;;;;;17.10;99.90;;;;;;5117120;28;19978;-82
2021/08/02 00:52:18;;;;;;;;;;;17.10;99.90;;;;;;5116229;28;20360;-82
2021/08/02 00:54:44;;;;;;;;;;;17.10;99.90;;;;;;5117533;28;19908;-82
2021/08/02 00:57:10;;;;;;;;;;;17.10;99.90;;;;;;5116177;28;19912;-82
2021/08/02 00:59:35;;;;;;;;;;;17.00;99.90;;;;;;5117053;28;19914;-82
2021/08/02 01:02:01;;;;;;;;;;;17.00;99.90;;;;;;5116329;28;19908;-82
2021/08/02 01:04:27;;;;;;;;;;;17.00;99.90;;;;;;5115942;28;19915;-82
2021/08/02 01:06:55;;;;;;;;;;;17.00;99.90;;;;;;5115513;28;19931;-82
2021/08/02 01:09:21;;;;;;;;;;;16.90;99.90;;;;;;5116608;28;19907;-82
2021/08/02 01:11:48;;;;;;;;;;;16.90;99.90;;;;;;5115017;28;19912;-82
2021/08/02 01:14:14;;;;;;;;;;;16.90;99.90;;;;;;5115632;28;19908;-82
2021/08/02 01:16:40;;;;;;;;;;;16.80;99.90;;;;;;5116257;28;19914;-82
2021/08/02 01:19:08;;;;;;;;;;;16.80;99.90;;;;;;5114749;28;20364;-82
2021/08/02 01:21:36;;;;;;;;;;;16.80;99.90;;;;;;5114631;28;19908;-82
2021/08/02 01:24:03;;;;;;;;;;;16.80;99.90;;;;;;5116022;28;19918;-82
2021/08/02 01:26:44;;;;;;;;;;;16.80;99.90;;;;;;5114388;28;19907;-82
2021/08/02 01:29:28;;;;;;;;;;;16.70;99.90;;;;;;5115031;28;19913;-82
2021/08/02 01:31:54;;;;;;;;;;;16.70;99.90;;;;;;5115821;28;19966;-82
2021/08/02 01:34:19;;;;;;;;;;;16.70;99.90;;;;;;5114524;28;20376;-82
2021/08/02 01:36:45;;;;;;;;;;;16.70;99.90;;;;;;5116412;28;20265;-82
2021/08/02 01:39:10;;;;;;;;;;;16.60;99.90;;;;;;5113684;28;19908;-82
2021/08/02 01:41:36;;;;;;;;;;;16.60;99.90;;;;;;5114094;28;19907;-82
2021/08/02 01:44:01;;;;;;;;;;;16.60;99.90;;;;;;5114104;28;19912;-82
2021/08/02 01:46:53;;;;;;;;;;;16.60;99.90;;;;;;5115628;28;19935;-82
2021/08/02 01:49:18;;;;;;;;;;;16.60;99.90;;;;;;5112374;28;19958;-81
2021/08/02 01:51:46;;;;;;;;;;;16.60;99.90;;;;;;5116215;28;20288;-82
2021/08/02 01:54:17;;;;;;;;;;;16.50;99.90;;;;;;5115410;27;19908;-82
2021/08/02 01:56:50;;;;;;;;;;;16.50;99.90;;;;;;5115257;28;20045;-82
2021/08/02 01:59:23;;;;;;;;;;;16.50;99.90;;;;;;5114829;28;20321;-82
2021/08/02 02:01:57;;;;;;;;;;;16.50;99.90;;;;;;5113486;28;19912;-82
2021/08/02 02:04:26;;;;;;;;;;;16.50;99.90;;;;;;5114987;28;20066;-82
2021/08/02 02:06:54;;;;;;;;;;;16.50;99.90;;;;;;5114077;28;19908;-82
2021/08/02 02:09:19;;;;;;;;;;;16.50;99.90;;;;;;5113432;28;20257;-82
2021/08/02 02:11:47;;;;;;;;;;;16.50;99.90;;;;;;5113745;28;19915;-82
2021/08/02 02:14:14;;;;;;;;;;;16.50;99.90;;;;;;5113719;28;19915;-82
2021/08/02 02:16:43;;;;;;;;;;;16.50;99.90;;;;;;5114008;28;19908;-82
2021/08/02 02:19:09;;;;;;;;;;;16.50;99.90;;;;;;5113356;28;19964;-82
2021/08/02 02:21:34;;;;;;;;;;;16.50;99.90;;;;;;5113799;28;19907;-82
2021/08/02 02:24:01;;;;;;;;;;;16.40;99.90;;;;;;5113521;28;19920;-82
2021/08/02 02:26:29;;;;;;;;;;;16.40;99.90;;;;;;5113212;28;19937;-82
2021/08/02 02:28:55;;;;;;;;;;;16.40;99.90;;;;;;5114309;28;19907;-82
2021/08/02 02:31:22;;;;;;;;;;;16.40;99.90;;;;;;5114772;28;19908;-81
2021/08/02 02:33:49;;;;;;;;;;;16.40;99.90;;;;;;5113401;28;19968;-82
2021/08/02 02:36:14;;;;;;;;;;;16.40;99.90;;;;;;5114514;28;19914;-82
2021/08/02 02:38:40;;;;;;;;;;;16.40;99.90;;;;;;5113008;28;19908;-82
2021/08/02 02:41:06;;;;;;;;;;;16.40;99.90;;;;;;5112977;28;20368;-82
2021/08/02 02:43:32;;;;;;;;;;;16.40;99.90;;;;;;5113473;28;19967;-82
2021/08/02 02:45:58;;;;;;;;;;;16.40;99.90;;;;;;5113572;28;20383;-82
2021/08/02 02:48:24;;;;;;;;;;;16.40;99.90;;;;;;5114749;28;20351;-82
2021/08/02 02:50:50;;;;;;;;;;;16.40;99.90;;;;;;5114488;28;19911;-81
2021/08/02 02:53:16;;;;;;;;;;;16.40;99.90;;;;;;5114618;28;19908;-82
2021/08/02 02:55:43;;;;;;;;;;;16.40;99.90;;;;;;5114906;28;19914;-82
2021/08/02 02:58:09;;;;;;;;;;;16.40;99.90;;;;;;5112125;28;19908;-82
2021/08/02 03:00:35;;;;;;;;;;;16.40;99.90;;;;;;5113509;28;20356;-82
2021/08/02 03:03:01;;;;;;;;;;;16.40;99.90;;;;;;5113358;28;19915;-82
2021/08/02 03:05:28;;;;;;;;;;;16.40;99.90;;;;;;5113270;28;19964;-82
2021/08/02 03:07:56;;;;;;;;;;;16.40;99.90;;;;;;5113218;28;20375;-82
2021/08/02 03:10:25;;;;;;;;;;;16.40;99.90;;;;;;5113804;28;19934;-82
2021/08/02 03:12:51;;;;;;;;;;;16.40;99.90;;;;;;5113121;28;19911;-82
2021/08/02 03:15:17;;;;;;;;;;;16.40;99.90;;;;;;5113221;28;19908;-82
2021/08/02 03:17:43;;;;;;;;;;;16.40;99.90;;;;;;5113977;28;19908;-82
2021/08/02 03:20:09;;;;;;;;;;;16.40;99.90;;;;;;5112473;28;20445;-82
2021/08/02 03:22:36;;;;;;;;;;;16.30;99.90;;;;;;5112622;28;19998;-82
2021/08/02 03:25:08;;;;;;;;;;;16.30;99.90;;;;;;5113977;28;19911;-82
2021/08/02 03:27:54;;;;;;;;;;;16.30;99.90;;;;;;5114333;28;19908;-82
2021/08/02 03:30:21;;;;;;;;;;;16.30;99.90;;;;;;5101227;28;19946;-82
2021/08/02 03:32:47;;;;;;;;;;;16.30;99.90;;;;;;5112743;28;19994;-82
2021/08/02 03:35:14;;;;;;;;;;;16.40;99.90;;;;;;5113816;28;19919;-82
2021/08/02 03:37:41;;;;;;;;;;;16.30;99.90;;;;;;5112695;28;19987;-82
2021/08/02 03:40:07;;;;;;;;;;;16.30;99.90;;;;;;5112401;28;19915;-81
2021/08/02 03:42:35;;;;;;;;;;;16.30;99.90;;;;;;5112906;28;19987;-84
2021/08/02 03:45:01;;;;;;;;;;;16.30;99.90;;;;;;5112826;28;19915;-84
2021/08/02 03:47:26;;;;;;;;;;;16.30;99.90;;;;;;5113984;28;19912;-84
2021/08/02 03:49:52;;;;;;;;;;;16.30;99.90;;;;;;5111797;28;19908;-84
2021/08/02 03:52:17;;;;;;;;;;;16.30;99.90;;;;;;5117951;28;19953;-84
2021/08/02 03:54:43;;;;;;;;;;;16.30;99.90;;;;;;5116459;28;19938;-84
2021/08/02 03:57:09;;;;;;;;;;;16.30;99.90;;;;;;5116405;28;19911;-84
2021/08/02 03:59:35;;;;;;;;;;;16.30;99.90;;;;;;5117402;28;19911;-84
2021/08/02 04:02:00;;;;;;;;;;;16.30;99.90;;;;;;5116283;28;19908;-84
2021/08/02 04:04:26;;;;;;;;;;;16.30;99.90;;;;;;5116593;28;20381;-84
2021/08/02 04:06:51;;;;;;;;;;;16.30;99.90;;;;;;5116257;28;19915;-84
2021/08/02 04:09:17;;;;;;;;;;;16.30;99.90;;;;;;5116484;28;19911;-84
2021/08/02 04:11:45;;;;;;;;;;;16.20;99.90;;;;;;5122609;28;19911;-84
2021/08/02 04:14:10;;;;;;;;;;;16.20;99.90;;;;;;5117027;28;19911;-84
2021/08/02 04:16:36;;;;;;;;;;;16.20;99.90;;;;;;5117818;28;20307;-84
2021/08/02 04:19:02;;;;;;;;;;;16.20;99.90;;;;;;5117974;28;19908;-84
2021/08/02 04:21:28;;;;;;;;;;;16.20;99.90;;;;;;5117087;28;20426;-84
2021/08/02 04:23:56;;;;;;;;;;;16.20;99.90;;;;;;5117307;28;19908;-84
2021/08/02 04:26:22;;;;;;;;;;;16.20;99.90;;;;;;5116851;28;19908;-84
2021/08/02 04:28:55;;;;;;;;;;;16.20;99.90;;;;;;5116906;28;20006;-84
2021/08/02 04:31:20;;;;;;;;;;;16.20;99.90;;;;;;5116543;28;19915;-84
2021/08/02 04:33:46;;;;;;;;;;;16.30;99.90;;;;;;5118373;28;19933;-84
2021/08/02 04:36:12;;;;;;;;;;;16.30;99.90;;;;;;5117481;28;19908;-84
2021/08/02 04:38:37;;;;;;;;;;;16.30;99.90;;;;;;5116500;28;19908;-83
2021/08/02 04:41:03;;;;;;;;;;;16.30;99.90;;;;;;5115005;28;19908;-84
2021/08/02 04:43:28;;;;;;;;;;;16.30;99.90;;;;;;5117475;28;19912;-83
2021/08/02 04:45:54;;;;;;;;;;;16.30;99.90;;;;;;5115632;28;19912;-84
2021/08/02 04:48:19;;;;;;;;;;;16.40;99.90;;;;;;5115211;28;19999;-84
2021/08/02 04:50:47;;;;;;;;;;;16.40;99.90;;;;;;5114413;28;19907;-84
2021/08/02 04:53:13;;;;;;;;;;;16.40;99.90;;;;;;5115189;28;19915;-84
2021/08/02 04:55:38;;;;;;;;;;;16.40;99.90;;;;;;5116777;28;19916;-84
2021/08/02 04:58:04;;;;;;;;;;;16.40;99.90;;;;;;5115543;27;20448;-84
2021/08/02 05:00:29;;;;;;;;;;;16.40;99.90;;;;;;5115030;28;19915;-84
2021/08/02 05:02:55;;;;;;;;;;;16.40;99.90;;;;;;5115199;28;19959;-84
2021/08/02 05:05:20;;;;;;;;;;;16.30;99.90;;;;;;5116526;28;19915;-84
2021/08/02 05:07:46;;;;;;;;;;;16.30;99.90;;;;;;5114896;28;19975;-84
2021/08/02 05:10:11;;;;;;;;;;;16.40;99.90;;;;;;5116551;28;20364;-84
2021/08/02 05:12:37;;;;;;;;;;;16.40;99.90;;;;;;5115560;28;19908;-84
2021/08/02 05:15:07;;;;;;;;;;;16.40;99.90;;;;;;5115489;28;19918;-84
2021/08/02 05:20:00;;;;;;;;;;;16.40;99.90;;;;;;5096771;22;19925;-89
2021/08/02 05:22:26;;;;;;;;;;;16.40;99.90;;;;;;5072719;28;19916;-88
2021/08/02 05:24:52;;;;;;;;;;;16.40;99.90;;;;;;5072764;28;19991;-88
2021/08/02 05:27:17;;;;;;;;;;;16.40;99.90;;;;;;5073856;28;20327;-88
2021/08/02 05:29:42;;;;;;;;;;;16.40;99.90;;;;;;5071860;28;20011;-88
2021/08/02 05:32:08;;;;;;;;;;;16.40;99.90;;;;;;5073824;28;19956;-88
2021/08/02 05:34:34;;;;;;;;;;;16.50;99.90;;;;;;5073631;28;19990;-88
2021/08/02 05:36:59;;;;;;;;;;;16.50;99.90;;;;;;5073806;28;19908;-88
2021/08/02 05:39:25;;;;;;;;;;;16.50;99.90;;;;;;5074340;28;20395;-88
2021/08/02 05:41:50;;;;;;;;;;;16.50;99.90;;;;;;5072190;28;19912;-88
2021/08/02 05:44:16;;;;;;;;;;;16.50;99.90;;;;;;5072374;28;20011;-88
2021/08/02 05:46:41;;;;;;;;;;;16.60;99.90;;;;;;5072367;28;20356;-88
2021/08/02 05:49:07;;;;;;;;;;;16.60;99.90;;;;;;5071533;28;19912;-88
2021/08/02 05:51:32;;;;;;;;;;;16.60;99.90;;;;;;5073411;28;19958;-88
2021/08/02 05:53:58;;;;;;;;;;;16.60;99.90;;;;;;5071946;28;20186;-88
2021/08/02 05:56:23;;;;;;;;;;;16.60;99.90;;;;;;5072040;28;19912;-88
2021/08/02 05:58:49;;;;;;;;;;;16.60;99.90;;;;;;5072894;28;19913;-89
2021/08/02 06:01:35;;;;;;;;;;;16.60;99.90;;;;;;5071873;28;19916;-88
2021/08/02 06:04:06;;;;;;;;;;;16.60;99.90;;;;;;5071556;28;19908;-88
2021/08/02 06:06:32;;;;;;;;;;;16.60;99.90;;;;;;5072905;28;19967;-88
2021/08/02 06:08:57;;;;;;;;;;;16.70;99.90;;;;;;5072429;28;19963;-88
2021/08/02 06:11:22;;;;;;;;;;;16.60;99.90;;;;;;5071781;28;19956;-88
2021/08/02 06:13:48;;;;;;;;;;;16.60;99.90;;;;;;5071078;28;19916;-88
2021/08/02 06:16:19;;;;;;;;;;;16.60;99.90;;;;;;5072966;28;19975;-88
2021/08/02 06:18:44;;;;;;;;;;;16.60;99.90;;;;;;5072084;28;19917;-88
2021/08/02 06:21:10;;;;;;;;;;;16.60;99.90;;;;;;5071732;28;19962;-88
2021/08/02 06:23:36;;;;;;;;;;;16.60;99.90;;;;;;5071755;28;19915;-88
2021/08/02 06:26:01;;;;;;;;;;;16.60;99.90;;;;;;5071309;28;19909;-88
2021/08/02 06:28:27;;;;;;;;;;;16.70;99.90;;;;;;5071626;28;19912;-90
2021/08/02 06:30:53;;;;;;;;;;;16.70;99.90;;;;;;5071775;28;20385;-90
2021/08/02 06:33:18;;;;;;;;;;;16.70;99.90;;;;;;5071604;28;19916;-90
2021/08/02 06:35:44;;;;;;;;;;;16.80;99.90;;;;;;5071466;28;19912;-89
2021/08/02 06:38:09;;;;;;;;;;;16.70;99.90;;;;;;5072557;28;19912;-89
2021/08/02 06:40:35;;;;;;;;;;;16.70;99.90;;;;;;5070755;28;20015;-88
2021/08/02 06:43:00;;;;;;;;;;;16.80;99.90;;;;;;5071122;28;19908;-88
2021/08/02 06:45:26;;;;;;;;;;;16.80;99.90;;;;;;5071306;28;19970;-88
2021/08/02 06:47:54;;;;;;;;;;;16.80;99.90;;;;;;5071139;28;19908;-88
2021/08/02 06:50:20;;;;;;;;;;;16.80;99.90;;;;;;5070534;28;19916;-89
2021/08/02 06:52:45;;;;;;;;;;;16.90;99.90;;;;;;5071105;28;19916;-88
2021/08/02 06:55:11;;;;;;;;;;;16.90;99.90;;;;;;5072534;28;20369;-88
2021/08/02 06:57:37;;;;;;;;;;;16.90;99.80;;;;;;5072394;28;19916;-89
2021/08/02 07:00:02;;;;;;;;;;;16.90;99.90;;;;;;5070566;28;20300;-89
2021/08/02 07:02:28;;;;;;;;;;;16.90;99.40;;;;;;5070788;28;19909;-88
2021/08/02 07:04:53;;;;;;;;;;;16.90;99.30;;;;;;5072396;28;20170;-88
2021/08/02 07:07:19;;;;;;;;;;;16.90;99.30;;;;;;5071007;28;19909;-88
2021/08/02 07:09:44;;;;;;;;;;;16.90;98.90;;;;;;5070657;28;19915;-88
2021/08/02 07:12:10;;;;;;;;;;;16.90;99.30;;;;;;5071375;28;19929;-88
2021/08/02 07:14:35;;;;;;;;;;;17.00;99.70;;;;;;5070865;28;19916;-88
2021/08/02 07:17:01;;;;;;;;;;;17.00;99.90;;;;;;5072241;28;19908;-89
2021/08/02 07:19:26;;;;;;;;;;;17.00;99.90;;;;;;5070467;28;19916;-88
2021/08/02 07:21:52;;;;;;;;;;;17.00;99.90;;;;;;5071061;28;19931;-88
2021/08/02 07:24:17;;;;;;;;;;;17.00;99.90;;;;;;5071369;28;19909;-88
2021/08/02 07:26:43;;;;;;;;;;;17.00;99.90;;;;;;5075029;28;19909;-88
2021/08/02 07:29:08;;;;;;;;;;;16.90;99.90;;;;;;5074250;28;19913;-88
2021/08/02 07:31:34;;;;;;;;;;;16.90;99.90;;;;;;5075000;28;19909;-88
2021/08/02 07:34:00;;;;;;;;;;;16.90;99.90;;;;;;5075198;28;20438;-89
2021/08/02 07:36:25;;;;;;;;;;;16.90;99.90;;;;;;5074952;28;19908;-88
2021/08/02 07:38:51;;;;;;;;;;;16.90;99.90;;;;;;5075743;28;19952;-89
2021/08/02 07:41:16;;;;;;;;;;;16.80;99.80;;;;;;5074293;28;19915;-88
2021/08/02 07:43:44;;;;;;;;;;;16.90;99.90;;;;;;5074547;28;20284;-89
2021/08/02 07:46:10;;;;;;;;;;;16.90;99.90;;;;;;5074469;28;19915;-88
2021/08/02 07:48:35;;;;;;;;;;;17.00;99.90;;;;;;5074565;28;19909;-88
2021/08/02 07:51:01;;;;;;;;;;;17.00;99.90;;;;;;5073794;28;19908;-88
2021/08/02 07:53:26;;;;;;;;;;;17.00;99.70;;;;;;5074379;28;19909;-88
2021/08/02 07:55:52;;;;;;;;;;;17.00;99.90;;;;;;5074534;28;19915;-88
2021/08/02 07:58:17;;;;;;;;;;;17.00;99.90;;;;;;5074248;28;20337;-89
2021/08/02 08:00:43;;;;;;;;;;;17.00;99.90;;;;;;5073537;28;20007;-89
2021/08/02 08:03:08;;;;;;;;;;;17.10;99.90;;;;;;5075560;28;19951;-89
2021/08/02 08:05:34;;;;;;;;;;;17.00;99.90;;;;;;5074366;28;20002;-89
2021/08/02 08:07:59;;;;;;;;;;;17.10;99.90;;;;;;5075367;28;19908;-89
2021/08/02 08:10:26;;;;;;;;;;;17.10;99.90;;;;;;5075073;28;19908;-89
2021/08/02 08:12:53;;;;;;;;;;;17.10;99.90;;;;;;5074033;28;19909;-89
2021/08/02 08:15:19;;;;;;;;;;;17.10;99.90;;;;;;5074399;28;19919;-89
2021/08/02 08:17:45;;;;;;;;;;;17.10;99.90;;;;;;5073900;28;19912;-89
2021/08/02 08:20:12;;;;;;;;;;;17.20;99.90;;;;;;5074775;28;20322;-89
2021/08/02 08:22:38;;;;;;;;;;;17.20;99.90;;;;;;5077233;28;20333;-88
2021/08/02 08:25:04;;;;;;;;;;;17.20;99.80;;;;;;5075236;28;19915;-89
2021/08/02 08:27:29;;;;;;;;;;;17.20;99.60;;;;;;5075203;28;19927;-89
2021/08/02 08:29:55;;;;;;;;;;;17.30;99.20;;;;;;5075255;28;19913;-89
2021/08/02 08:32:20;;;;;;;;;;;17.30;98.50;;;;;;5075845;28;19908;-88
2021/08/02 08:34:46;;;;;;;;;;;17.30;98.40;;;;;;5074448;28;19919;-89
2021/08/02 08:37:11;;;;;;;;;;;17.40;98.80;;;;;;5075253;28;19908;-88
2021/08/02 08:39:37;;;;;;;;;;;17.40;99.00;;;;;;5075224;28;20008;-89
2021/08/02 08:42:03;;;;;;;;;;;17.40;98.80;;;;;;5074175;28;19916;-89
2021/08/02 08:44:29;;;;;;;;;;;17.40;98.30;;;;;;5074354;28;19908;-89
2021/08/02 08:46:54;;;;;;;;;;;17.50;97.70;;;;;;5075828;28;20318;-89
2021/08/02 08:49:20;;;;;;;;;;;17.50;97.90;;;;;;5073866;28;19908;-89
2021/08/02 08:51:46;;;;;;;;;;;17.60;97.90;;;;;;5075606;28;19974;-89
2021/08/02 08:54:12;;;;;;;;;;;17.60;98.00;;;;;;5074661;28;20011;-89
2021/08/02 08:56:37;;;;;;;;;;;17.70;97.90;;;;;;5074460;28;19963;-89
2021/08/02 08:59:03;;;;;;;;;;;17.70;97.60;;;;;;5073356;28;19923;-89
2021/08/02 09:01:29;;;;;;;;;;;17.70;97.50;;;;;;5075341;28;19969;-88
2021/08/02 09:03:55;;;;;;;;;;;17.70;96.10;;;;;;5076040;28;20372;-89
2021/08/02 09:06:21;;;;;;;;;;;17.70;96.60;;;;;;5074111;28;19909;-89
2021/08/02 09:08:46;;;;;;;;;;;17.70;97.10;;;;;;5075399;28;20049;-88
2021/08/02 09:11:18;;;;;;;;;;;17.70;97.00;;;;;;5073488;28;19930;-89
2021/08/02 09:13:44;;;;;;;;;;;17.70;96.30;;;;;;5073485;28;19909;-89
2021/08/02 09:16:11;;;;;;;;;;;17.70;96.30;;;;;;5073686;28;19908;-89
2021/08/02 09:18:36;;;;;;;;;;;17.80;96.50;;;;;;5073665;28;19923;-88
2021/08/02 09:21:03;;;;;;;;;;;17.80;96.70;;;;;;5073900;28;19908;-89
2021/08/02 09:23:28;;;;;;;;;;;17.80;96.60;;;;;;5073626;28;19912;-89
2021/08/02 09:25:55;;;;;;;;;;;17.90;96.60;;;;;;5073518;28;20007;-89
2021/08/02 09:28:23;;;;;;;;;;;17.90;96.20;;;;;;5073971;28;20281;-89
2021/08/02 09:30:52;;;;;;;;;;;17.90;94.90;;;;;;5072867;28;19912;-89
2021/08/02 09:33:17;;;;;;;;;;;17.80;94.20;;;;;;5073335;28;19915;-89
2021/08/02 09:35:48;;;;;;;;;;;17.80;94.20;;;;;;5073403;28;20002;-89
2021/08/02 09:38:14;;;;;;;;;;;17.90;94.40;;;;;;5073304;28;19908;-88
2021/08/02 09:40:41;;;;;;;;;;;17.80;93.70;;;;;;5072767;28;20284;-89
2021/08/02 09:43:08;;;;;;;;;;;17.80;93.50;;;;;;5074512;28;19961;-89
2021/08/02 09:45:44;;;;;;;;;;;17.80;93.70;;;;;;5073204;28;19908;-89
2021/08/02 09:48:10;;;;;;;;;;;17.80;93.70;;;;;;5072591;28;19915;-89
2021/08/02 09:50:39;;;;;;;;;;;17.70;93.90;;;;;;5072496;28;19908;-89
2021/08/02 09:53:05;;;;;;;;;;;17.80;94.10;;;;;;5073627;28;19962;-89
2021/08/02 09:55:30;;;;;;;;;;;17.80;93.60;;;;;;5073010;28;19916;-89
2021/08/02 09:57:56;;;;;;;;;;;17.80;93.60;;;;;;5074370;28;19958;-89
2021/08/02 10:00:22;;;;;;;;;;;17.90;93.60;;;;;;5074020;28;20387;-89
2021/08/02 10:02:49;;;;;;;;;;;17.90;93.20;;;;;;5073079;28;19931;-89
2021/08/02 10:05:19;;;;;;;;;;;18.00;93.40;;;;;;5074062;28;19908;-89
2021/08/02 10:07:45;;;;;;;;;;;18.00;93.60;;;;;;5074266;28;19908;-89
2021/08/02 10:10:13;;;;;;;;;;;18.10;93.40;;;;;;5073881;28;20510;-89
2021/08/02 10:12:44;;;;;;;;;;;18.20;92.40;;;;;;5072698;28;19962;-89
2021/08/02 10:15:13;;;;;;;;;;;18.20;92.40;;;;;;5074038;28;19916;-89
2021/08/02 10:17:40;;;;;;;;;;;18.20;91.80;;;;;;5072863;28;19913;-88
2021/08/02 10:20:15;;;;;;;;;;;18.20;91.60;;;;;;5072290;28;19938;-88
2021/08/02 10:22:44;;;;;;;;;;;18.30;92.00;;;;;;5072861;28;19916;-88
2021/08/02 10:25:10;;;;;;;;;;;18.20;92.00;;;;;;5073085;28;19912;-89
2021/08/02 10:27:35;;;;;;;;;;;18.30;91.90;;;;;;5073944;28;19916;-89
2021/08/02 10:30:01;;;;;;;;;;;18.30;92.30;;;;;;5072157;28;19913;-88
2021/08/02 10:32:32;;;;;;;;;;;18.30;92.20;;;;;;5074475;28;20491;-89
2021/08/02 10:34:59;;;;;;;;;;;18.40;92.60;;;;;;5073787;28;19913;-89
2021/08/02 10:37:32;;;;;;;;;;;18.40;92.80;;;;;;5074828;28;19999;-88
2021/08/02 10:40:02;;;;;;;;;;;18.50;92.60;;;;;;5071417;28;19923;-89
2021/08/02 10:42:27;;;;;;;;;;;18.50;92.40;;;;;;5071538;28;19999;-89
2021/08/02 10:44:54;;;;;;;;;;;18.70;92.30;;;;;;5071810;28;19947;-88
2021/08/02 10:47:19;;;;;;;;;;;18.70;92.00;;;;;;5071771;28;19979;-89
2021/08/02 10:49:49;;;;;;;;;;;18.80;91.70;;;;;;5071467;28;20369;-89
2021/08/02 10:52:24;;;;;;;;;;;18.90;91.80;;;;;;5072891;28;19916;-89
2021/08/02 10:54:50;;;;;;;;;;;18.90;91.60;;;;;;5071469;28;19913;-89
2021/08/02 10:57:16;;;;;;;;;;;18.90;91.50;;;;;;5071627;28;20344;-89
2021/08/02 10:59:41;;;;;;;;;;;18.90;91.40;;;;;;5071119;28;19917;-89
2021/08/02 11:02:10;;;;;;;;;;;19.00;91.50;;;;;;5071473;28;20147;-89
2021/08/02 11:04:37;;;;;;;;;;;19.00;91.50;;;;;;5071334;28;19944;-90
2021/08/02 11:07:03;;;;;;;;;;;19.00;91.20;;;;;;5071246;28;19909;-89
2021/08/02 11:09:36;;;;;;;;;;;19.10;91.50;;;;;;5072334;28;19913;-89
2021/08/02 11:12:06;;;;;;;;;;;19.10;91.50;;;;;;5071338;28;19962;-89
2021/08/02 11:14:31;;;;;;;;;;;19.20;91.50;;;;;;5072593;28;20285;-89
2021/08/02 11:16:57;;;;;;;;;;;19.20;91.50;;;;;;5071240;28;19908;-89
2021/08/02 11:19:24;;;;;;;;;;;19.20;91.00;;;;;;5071598;28;19917;-89
2021/08/02 11:22:00;;;;;;;;;;;19.30;91.00;;;;;;5071221;28;19909;-89
2021/08/02 11:24:26;;;;;;;;;;;19.30;91.20;;;;;;5071086;28;19909;-89
2021/08/02 11:26:55;;;;;;;;;;;19.30;90.90;;;;;;5072384;28;19915;-89
2021/08/02 11:29:31;;;;;;;;;;;19.30;91.50;;;;;;5070965;28;19983;-88
2021/08/02 11:32:01;;;;;;;;;;;19.30;91.60;;;;;;5071197;28;20301;-89
2021/08/02 11:34:28;;;;;;;;;;;19.30;91.90;;;;;;5070935;28;19912;-89
2021/08/02 11:37:02;;;;;;;;;;;19.30;92.20;;;;;;5072426;28;19913;-89
2021/08/02 11:39:28;;;;;;;;;;;19.30;92.30;;;;;;5072236;28;19908;-89
2021/08/02 11:42:01;;;;;;;;;;;19.40;92.10;;;;;;5071354;28;19908;-89
2021/08/02 11:44:26;;;;;;;;;;;19.40;91.90;;;;;;5072315;28;19950;-89
2021/08/02 11:46:53;;;;;;;;;;;19.40;92.00;;;;;;5070992;28;19908;-89
2021/08/02 11:49:18;;;;;;;;;;;19.40;91.80;;;;;;5072046;28;19912;-89
2021/08/02 11:51:44;;;;;;;;;;;19.40;92.00;;;;;;5070954;28;19931;-89
2021/08/02 11:54:19;;;;;;;;;;;19.50;91.80;;;;;;5070812;28;19920;-89
2021/08/02 11:56:45;;;;;;;;;;;19.50;92.10;;;;;;5072106;28;19999;-89
2021/08/02 11:59:18;;;;;;;;;;;19.50;91.90;;;;;;5071898;28;19967;-89
2021/08/02 12:01:45;;;;;;;;;;;19.50;92.00;;;;;;5070985;28;20288;-89
2021/08/02 12:04:10;;;;;;;;;;;19.50;91.80;;;;;;5070757;28;20422;-88
2021/08/02 12:06:45;;;;;;;;;;;19.60;91.90;;;;;;5071003;28;19909;-89
2021/08/02 12:09:11;;;;;;;;;;;19.60;92.00;;;;;;5071817;28;19915;-89
2021/08/02 12:11:44;;;;;;;;;;;19.70;91.80;;;;;;5071653;28;20281;-89
2021/08/02 12:14:10;;;;;;;;;;;19.60;91.30;;;;;;5074136;28;20403;-88
2021/08/02 12:16:35;;;;;;;;;;;19.60;91.10;;;;;;5074263;28;19909;-89
2021/08/02 12:19:07;;;;;;;;;;;19.60;91.10;;;;;;5075283;28;19923;-89
2021/08/02 12:21:33;;;;;;;;;;;19.60;90.80;;;;;;5074191;28;19995;-88
2021/08/02 12:24:09;;;;;;;;;;;19.60;90.90;;;;;;5074088;28;19970;-89
2021/08/02 12:26:36;;;;;;;;;;;19.60;90.90;;;;;;5074113;28;20284;-89
2021/08/02 12:29:02;;;;;;;;;;;19.70;90.80;;;;;;5073873;28;19912;-89
2021/08/02 12:31:27;;;;;;;;;;;19.70;90.50;;;;;;5074022;28;19909;-89
2021/08/02 12:33:53;;;;;;;;;;;19.70;90.80;;;;;;5073844;28;19908;-89
2021/08/02 12:36:19;;;;;;;;;;;19.70;89.80;;;;;;5073930;28;19913;-89
2021/08/02 12:38:46;;;;;;;;;;;19.80;90.20;;;;;;5073811;28;19913;-89
2021/08/02 12:41:11;;;;;;;;;;;19.80;90.30;;;;;;5073758;28;20003;-89
2021/08/02 12:43:37;;;;;;;;;;;19.90;90.60;;;;;;5075141;28;19939;-89
2021/08/02 12:46:02;;;;;;;;;;;20.00;90.70;;;;;;5073726;28;19954;-89
2021/08/02 12:48:28;;;;;;;;;;;20.10;90.20;;;;;;5073783;28;19913;-89
2021/08/02 12:50:53;;;;;;;;;;;20.10;89.30;;;;;;5074842;28;20448;-89
2021/08/02 12:53:19;;;;;;;;;;;20.00;88.20;;;;;;5073757;28;19912;-89
2021/08/02 12:55:44;;;;;;;;;;;20.00;89.30;;;;;;5073523;28;19912;-88
2021/08/02 12:58:12;;;;;;;;;;;20.00;89.50;;;;;;5073378;28;19908;-89
2021/08/02 13:00:37;;;;;;;;;;;19.90;89.60;;;;;;5073758;28;20262;-89
2021/08/02 13:03:04;;;;;;;;;;;19.90;89.50;;;;;;5074934;28;19916;-89
2021/08/02 13:05:29;;;;;;;;;;;19.90;90.00;;;;;;5074469;28;19920;-89
2021/08/02 13:07:56;;;;;;;;;;;19.80;89.50;;;;;;5074589;28;20377;-89
2021/08/02 13:10:21;;;;;;;;;;;19.80;89.80;;;;;;5075269;28;19909;-89
2021/08/02 13:12:46;;;;;;;;;;;19.80;90.30;;;;;;5074708;28;20355;-89
2021/08/02 13:15:12;;;;;;;;;;;19.90;90.30;;;;;;5074362;28;19912;-88
2021/08/02 13:17:38;;;;;;;;;;;19.90;90.50;;;;;;5074185;28;19935;-89
2021/08/02 13:20:04;;;;;;;;;;;19.90;90.00;;;;;;5074244;28;20360;-88
2021/08/02 13:22:42;;;;;;;;;;;19.80;90.10;;;;;;5073856;28;19912;-89
2021/08/02 13:27:53;;;;;;;;;;;19.80;90.30;;;;;;5075012;28;19954;-89
2021/08/02 13:30:19;;;;;;;;;;;19.80;90.30;;;;;;5074881;28;19938;-89
2021/08/02 13:32:44;;;;;;;;;;;19.90;90.10;;;;;;5075012;28;19909;-89
2021/08/02 13:35:10;;;;;;;;;;;19.80;90.30;;;;;;5075330;28;19935;-89
2021/08/02 13:37:35;;;;;;;;;;;19.90;90.30;;;;;;5075307;28;20065;-89
2021/08/02 13:40:01;;;;;;;;;;;19.90;90.40;;;;;;5073225;28;19920;-89
2021/08/02 13:42:26;;;;;;;;;;;19.90;90.10;;;;;;5074825;28;20446;-89
2021/08/02 13:44:52;;;;;;;;;;;19.90;89.60;;;;;;5074029;28;20410;-89
2021/08/02 13:47:17;;;;;;;;;;;19.90;90.10;;;;;;5073837;28;20285;-88
2021/08/02 13:49:43;;;;;;;;;;;19.90;90.30;;;;;;5073252;28;19908;-89
2021/08/02 13:52:08;;;;;;;;;;;19.90;90.30;;;;;;5073343;28;19912;-89
2021/08/02 13:54:34;;;;;;;;;;;19.90;88.30;;;;;;5073326;28;19936;-88
2021/08/02 13:56:59;;;;;;;;;;;19.80;88.20;;;;;;5073536;28;20404;-89
2021/08/02 13:59:25;;;;;;;;;;;19.80;89.20;;;;;;5073609;28;20323;-89
2021/08/02 14:01:50;;;;;;;;;;;19.80;89.10;;;;;;5073221;28;20312;-88
2021/08/02 14:04:16;;;;;;;;;;;19.80;89.30;;;;;;5073226;28;19908;-89
2021/08/02 14:06:41;;;;;;;;;;;19.80;89.70;;;;;;5074532;28;19942;-89
2021/08/02 14:09:07;;;;;;;;;;;19.80;89.00;;;;;;5072498;28;19913;-88
2021/08/02 14:11:33;;;;;;;;;;;19.80;89.80;;;;;;5073300;28;19908;-89
2021/08/02 14:14:00;;;;;;;;;;;19.80;89.20;;;;;;5073428;28;19920;-89
2021/08/02 14:16:33;;;;;;;;;;;19.80;89.40;;;;;;5073125;28;19909;-89
2021/08/02 14:19:11;;;;;;;;;;;19.80;88.70;;;;;;5072414;28;20384;-89